createdAt,value
2018-09-18T00:03:16.082Z,19.67
2018-09-18T00:07:19.724Z,19.63
2018-09-18T00:11:24.361Z,19.61
2018-09-18T00:15:27.978Z,19.59
2018-09-18T00:19:31.564Z,19.52
2018-09-18T00:23:35.263Z,19.48
2018-09-18T00:27:38.973Z,19.45
2018-09-18T00:31:42.796Z,19.40
2018-09-18T00:35:46.470Z,19.33
2018-09-18T00:39:50.016Z,19.31
2018-09-18T00:43:53.854Z,19.26
2018-09-18T00:47:57.375Z,19.17
2018-09-18T00:52:01.152Z,19.11
2018-09-18T00:56:04.684Z,19.04
2018-09-18T01:00:08.326Z,18.98
2018-09-18T01:04:11.947Z,18.93
2018-09-18T01:08:15.532Z,18.90
2018-09-18T01:12:19.162Z,18.85
2018-09-18T01:16:22.778Z,18.80
2018-09-18T01:20:26.350Z,18.77
2018-09-18T01:24:29.904Z,18.72
2018-09-18T01:28:33.615Z,18.68
2018-09-18T01:32:37.517Z,18.63
2018-09-18T01:36:41.418Z,18.56
2018-09-18T01:40:47.999Z,18.55
2018-09-18T01:44:51.635Z,18.56
2018-09-18T01:48:56.409Z,18.56
2018-09-18T01:53:00.078Z,18.57
2018-09-18T01:57:03.845Z,18.54
2018-09-18T02:01:07.539Z,18.55
2018-09-18T02:05:12.141Z,18.55
2018-09-18T02:09:15.612Z,18.49
2018-09-18T02:13:19.271Z,18.41
2018-09-18T02:17:23.167Z,18.38
2018-09-18T02:21:26.723Z,18.36
2018-09-18T02:25:31.427Z,18.37
2018-09-18T02:29:35.049Z,18.36
2018-09-18T02:33:38.832Z,18.37
2018-09-18T02:37:42.555Z,18.36
2018-09-18T02:41:46.202Z,18.32
2018-09-18T02:45:49.912Z,18.28
2018-09-18T02:49:54.893Z,18.23
2018-09-18T02:53:58.470Z,18.24
2018-09-18T02:58:02.102Z,18.19
2018-09-18T03:02:05.723Z,18.17
2018-09-18T03:06:09.961Z,18.16
2018-09-18T03:10:13.581Z,18.16
2018-09-18T03:14:18.391Z,18.15
2018-09-18T03:18:22.979Z,18.13
2018-09-18T03:22:26.626Z,18.11
2018-09-18T03:26:30.246Z,18.06
2018-09-18T03:30:33.852Z,17.99
2018-09-18T03:34:37.610Z,17.97
2018-09-18T03:38:41.570Z,17.95
2018-09-18T03:42:45.220Z,17.93
2018-09-18T03:46:51.001Z,17.89
2018-09-18T03:50:54.513Z,17.81
2018-09-18T03:54:58.117Z,17.74
2018-09-18T03:59:01.862Z,17.73
2018-09-18T04:03:05.427Z,17.67
2018-09-18T04:07:09.026Z,17.62
2018-09-18T04:11:12.642Z,17.58
2018-09-18T04:15:16.432Z,17.51
2018-09-18T04:19:20.090Z,17.48
2018-09-18T04:23:23.937Z,17.46
2018-09-18T04:27:27.553Z,17.43
2018-09-18T04:31:31.225Z,17.39
2018-09-18T04:35:34.803Z,17.39
2018-09-18T04:39:38.580Z,17.40
2018-09-18T04:43:42.102Z,17.41
2018-09-18T04:48:06.104Z,17.41
2018-09-18T04:52:10.184Z,17.42
2018-09-18T04:56:14.047Z,17.45
2018-09-18T05:00:17.724Z,17.47
2018-09-18T05:04:21.638Z,17.47
2018-09-18T05:08:25.237Z,17.50
2018-09-18T05:12:28.874Z,17.54
2018-09-18T05:16:32.672Z,17.55
2018-09-18T05:20:36.871Z,17.52
2018-09-18T05:24:40.471Z,17.50
2018-09-18T05:28:44.190Z,17.50
2018-09-18T05:32:47.823Z,17.54
2018-09-18T05:36:51.358Z,17.55
2018-09-18T05:40:55.116Z,17.56
2018-09-18T05:44:58.751Z,17.59
2018-09-18T05:49:03.922Z,17.60
2018-09-18T05:53:08.161Z,17.64
2018-09-18T05:57:11.748Z,17.67
2018-09-18T06:01:15.260Z,17.74
2018-09-18T06:05:18.818Z,17.79
2018-09-18T06:09:22.483Z,17.85
2018-09-18T06:13:26.050Z,17.92
2018-09-18T06:17:29.536Z,17.97
2018-09-18T06:21:33.054Z,18.05
2018-09-18T06:25:37.699Z,18.14
2018-09-18T06:29:41.283Z,18.20
2018-09-18T06:33:45.881Z,18.29
2018-09-18T06:37:49.666Z,18.37
2018-09-18T06:41:53.494Z,18.47
2018-09-18T06:45:56.954Z,18.57
2018-09-18T06:50:00.490Z,18.68
2018-09-18T06:54:04.037Z,18.77
2018-09-18T06:58:07.513Z,18.89
2018-09-18T07:02:11.302Z,19.00
2018-09-18T07:06:14.795Z,19.13
2018-09-18T07:10:18.386Z,19.29
2018-09-18T07:14:22.038Z,19.46
2018-09-18T07:18:25.630Z,19.62
2018-09-18T07:22:30.338Z,19.82
2018-09-18T07:26:33.891Z,20.03
2018-09-18T07:30:37.586Z,20.18
2018-09-18T07:34:41.280Z,20.37
2018-09-18T07:38:45.032Z,20.53
2018-09-18T07:42:48.475Z,20.73
2018-09-18T07:46:52.026Z,20.90
2018-09-18T07:50:55.427Z,21.08
2018-09-18T07:54:59.031Z,21.24
2018-09-18T07:59:03.198Z,21.43
2018-09-18T08:03:06.892Z,21.66
2018-09-18T08:07:10.556Z,21.84
2018-09-18T08:11:14.240Z,22.00
2018-09-18T08:15:17.706Z,22.17
2018-09-18T08:19:21.346Z,22.33
2018-09-18T08:23:24.864Z,22.48
2018-09-18T08:27:28.639Z,22.64
2018-09-18T08:31:32.166Z,22.81
2018-09-18T08:35:35.818Z,23.03
2018-09-18T08:39:39.578Z,23.20
2018-09-18T08:43:43.362Z,23.39
2018-09-18T08:47:46.945Z,23.54
2018-09-18T08:51:51.668Z,23.68
2018-09-18T08:55:55.556Z,23.78
2018-09-18T09:00:01.565Z,23.92
2018-09-18T09:04:05.017Z,24.09
2018-09-18T09:08:09.414Z,24.22
2018-09-18T09:12:12.734Z,24.34
2018-09-18T09:16:16.555Z,24.50
2018-09-18T09:20:20.069Z,24.64
2018-09-18T09:24:24.874Z,24.76
2018-09-18T09:28:28.402Z,24.89
2018-09-18T09:32:32.190Z,25.05
2018-09-18T09:36:35.702Z,25.18
2018-09-18T09:40:39.155Z,25.30
2018-09-18T09:44:42.663Z,25.41
2018-09-18T09:48:46.192Z,25.52
2018-09-18T09:52:50.075Z,25.66
2018-09-18T09:56:53.641Z,25.77
2018-09-18T10:01:02.446Z,25.83
2018-09-18T10:05:06.023Z,25.97
2018-09-18T10:09:11.594Z,26.01
2018-09-18T10:13:15.052Z,26.11
2018-09-18T10:17:18.591Z,26.18
2018-09-18T10:21:22.166Z,26.25
2018-09-18T10:25:25.797Z,26.37
2018-09-18T10:29:29.485Z,26.49
2018-09-18T10:33:33.028Z,26.62
2018-09-18T10:37:36.681Z,26.74
2018-09-18T10:41:41.408Z,26.85
2018-09-18T10:45:46.037Z,26.95
2018-09-18T10:49:49.527Z,27.05
2018-09-18T10:53:53.075Z,27.13
2018-09-18T10:57:56.597Z,27.23
2018-09-18T11:02:00.241Z,27.33
2018-09-18T11:06:03.877Z,27.41
2018-09-18T11:10:07.778Z,27.47
2018-09-18T11:14:12.767Z,27.53
2018-09-18T11:18:16.564Z,27.60
2018-09-18T11:22:20.123Z,27.66
2018-09-18T11:26:23.542Z,27.69
2018-09-18T11:30:27.247Z,27.70
2018-09-18T11:34:31.813Z,27.77
2018-09-18T11:38:35.300Z,27.85
2018-09-18T11:42:38.848Z,27.94
2018-09-18T11:46:42.531Z,28.05
2018-09-18T11:50:46.098Z,28.04
2018-09-18T11:54:49.849Z,28.03
2018-09-18T11:58:54.683Z,28.03
2018-09-18T12:02:58.242Z,28.07
2018-09-18T12:07:01.788Z,28.11
2018-09-18T12:11:05.356Z,28.14
2018-09-18T12:15:08.894Z,28.16
2018-09-18T12:19:12.354Z,28.21
2018-09-18T12:23:16.016Z,28.22
2018-09-18T12:27:19.782Z,28.29
2018-09-18T12:31:23.291Z,28.31
2018-09-18T12:35:27.008Z,28.32
2018-09-18T12:39:30.452Z,28.31
2018-09-18T12:43:34.167Z,28.24
2018-09-18T12:47:37.647Z,28.24
2018-09-18T12:51:41.247Z,28.30
2018-09-18T12:55:45.734Z,28.28
2018-09-18T12:59:49.364Z,28.19
2018-09-18T13:03:53.941Z,28.18
2018-09-18T13:07:58.020Z,28.17
2018-09-18T13:12:01.657Z,28.15
2018-09-18T13:16:05.254Z,28.15
2018-09-18T13:20:08.825Z,28.18
2018-09-18T13:24:12.415Z,28.16
2018-09-18T13:28:15.907Z,28.16
2018-09-18T13:32:19.520Z,28.16
2018-09-18T13:36:23.072Z,28.16
2018-09-18T13:40:26.642Z,28.13
2018-09-18T13:44:30.113Z,28.12
2018-09-18T13:48:34.187Z,28.03
2018-09-18T13:52:38.918Z,27.99
2018-09-18T13:56:42.580Z,27.96
2018-09-18T14:00:46.169Z,27.86
2018-09-18T14:04:50.090Z,27.82
2018-09-18T14:08:53.820Z,27.85
2018-09-18T14:12:57.814Z,27.82
2018-09-18T14:17:01.395Z,27.77
2018-09-18T14:21:05.056Z,27.72
2018-09-18T14:25:08.614Z,27.72
2018-09-18T14:29:12.330Z,27.69
2018-09-18T14:33:15.850Z,27.60
2018-09-18T14:37:19.491Z,27.53
2018-09-18T14:41:23.031Z,27.48
2018-09-18T14:45:26.574Z,27.38
2018-09-18T14:49:30.149Z,27.34
2018-09-18T14:53:33.612Z,27.30
2018-09-18T14:57:37.190Z,27.26
2018-09-18T15:01:40.911Z,27.19
2018-09-18T15:05:44.463Z,27.12
2018-09-18T15:09:47.993Z,27.07
2018-09-18T15:13:51.549Z,27.04
2018-09-18T15:17:55.137Z,27.00
2018-09-18T15:21:58.818Z,26.93
2018-09-18T15:26:03.946Z,26.86
2018-09-18T15:30:07.733Z,26.82
2018-09-18T15:34:11.421Z,26.77
2018-09-18T15:38:14.950Z,26.70
2018-09-18T15:42:18.684Z,26.63
2018-09-18T15:46:22.380Z,26.61
2018-09-18T15:50:25.952Z,26.59
2018-09-18T15:54:29.778Z,26.53
2018-09-18T15:58:33.406Z,26.46
2018-09-18T16:02:38.287Z,26.40
2018-09-18T16:06:41.831Z,26.32
2018-09-18T16:10:46.514Z,26.26
2018-09-18T16:14:50.162Z,26.22
2018-09-18T16:18:53.731Z,26.15
2018-09-18T16:22:57.499Z,26.07
2018-09-18T16:27:03.159Z,26.02
2018-09-18T16:31:06.878Z,25.93
2018-09-18T16:35:10.471Z,25.85
2018-09-18T16:39:14.231Z,25.78
2018-09-18T16:43:17.996Z,25.68
2018-09-18T16:47:21.449Z,25.61
2018-09-18T16:51:25.228Z,25.52
2018-09-18T16:55:28.728Z,25.44
2018-09-18T16:59:32.399Z,25.34
2018-09-18T17:08:01.877Z,25.21
2018-09-18T17:12:06.373Z,25.12
2018-09-18T17:16:09.864Z,25.03
2018-09-18T17:20:13.626Z,24.94
2018-09-18T17:24:17.272Z,24.83
2018-09-18T17:28:20.932Z,24.71
2018-09-18T17:32:24.517Z,24.65
2018-09-18T17:36:28.740Z,24.61
2018-09-18T17:40:32.512Z,24.55
2018-09-18T17:44:36.403Z,24.49
2018-09-18T17:48:40.039Z,24.40
2018-09-18T17:52:43.829Z,24.34
2018-09-18T17:56:48.147Z,24.25
2018-09-18T18:00:54.548Z,24.19
2018-09-18T18:04:58.331Z,24.11
2018-09-18T18:09:02.294Z,24.03
2018-09-18T18:13:06.463Z,23.98
2018-09-18T18:17:10.242Z,23.93
2018-09-18T18:21:14.125Z,23.84
2018-09-18T18:25:17.805Z,23.75
2018-09-18T18:29:22.220Z,23.67
2018-09-18T18:33:26.128Z,23.60
2018-09-18T18:37:29.940Z,23.55
2018-09-18T18:41:34.535Z,23.50
2018-09-18T18:45:38.245Z,23.42
2018-09-18T18:49:41.931Z,23.35
2018-09-18T18:53:45.533Z,23.30
2018-09-18T18:57:49.132Z,23.23
2018-09-18T19:01:52.972Z,23.18
2018-09-18T19:05:57.526Z,23.11
2018-09-18T19:10:01.455Z,23.05
2018-09-18T19:14:05.012Z,23.29
2018-09-18T19:18:08.837Z,23.17
2018-09-18T19:22:12.569Z,23.13
2018-09-18T19:26:16.356Z,23.05
2018-09-18T19:30:20.026Z,22.95
2018-09-18T19:34:23.969Z,22.90
2018-09-18T19:38:27.617Z,22.83
2018-09-18T19:42:31.504Z,22.78
2018-09-18T19:46:35.158Z,22.72
2018-09-18T19:50:38.900Z,22.67
2018-09-18T19:54:42.557Z,22.62
2018-09-18T19:58:46.507Z,22.53
2018-09-18T20:02:50.052Z,22.49
2018-09-18T20:06:53.847Z,22.47
2018-09-18T20:10:57.440Z,22.45
2018-09-18T20:15:01.553Z,22.42
2018-09-18T20:19:05.376Z,22.35
2018-09-18T20:23:09.400Z,22.27
2018-09-18T20:27:12.927Z,22.24
2018-09-18T20:31:17.219Z,22.21
2018-09-18T20:35:20.768Z,22.16
2018-09-18T20:39:25.484Z,22.11
2018-09-18T20:43:29.082Z,22.07
2018-09-18T20:47:32.741Z,22.04
2018-09-18T20:51:36.226Z,21.99
2018-09-18T20:55:40.138Z,21.93
2018-09-18T20:59:43.658Z,21.88
2018-09-18T21:03:47.679Z,21.79
2018-09-18T21:07:51.294Z,21.74
2018-09-18T21:11:55.144Z,21.71
2018-09-18T21:15:58.611Z,21.63
2018-09-18T21:20:02.562Z,21.61
2018-09-18T21:24:06.034Z,21.54
2018-09-18T21:28:09.963Z,21.45
2018-09-18T21:32:13.467Z,21.38
2018-09-18T21:36:17.285Z,21.37
2018-09-18T21:40:20.899Z,21.33
2018-09-18T21:44:24.920Z,21.27
2018-09-18T21:48:28.716Z,21.24
2018-09-18T21:52:33.467Z,21.18
2018-09-18T21:56:37.507Z,21.11
2018-09-18T22:05:07.214Z,21.01
2018-09-18T22:09:11.193Z,20.89
2018-09-18T22:13:14.771Z,20.79
2018-09-18T22:17:18.560Z,20.69
2018-09-18T22:21:22.026Z,20.60
2018-09-18T22:25:26.990Z,20.55
2018-09-18T22:29:30.555Z,20.54
2018-09-18T22:33:34.282Z,20.50
2018-09-18T22:37:37.771Z,20.44
2018-09-18T22:41:41.597Z,20.38
2018-09-18T22:45:45.270Z,20.37
2018-09-18T22:49:49.448Z,20.30
2018-09-18T22:53:53.207Z,20.20
2018-09-18T22:57:56.813Z,20.04
2018-09-18T23:02:00.513Z,19.94
2018-09-18T23:06:05.632Z,19.84
2018-09-18T23:10:09.276Z,19.73
2018-09-18T23:14:13.229Z,19.62
2018-09-18T23:18:16.789Z,19.55
2018-09-18T23:22:20.698Z,19.50
2018-09-18T23:26:24.397Z,19.45
2018-09-18T23:30:28.128Z,19.37
2018-09-18T23:34:31.571Z,19.28
2018-09-18T23:38:35.343Z,19.23
2018-09-18T23:42:38.925Z,19.22
2018-09-18T23:46:42.675Z,19.23
2018-09-18T23:50:46.288Z,19.25
2018-09-18T23:54:50.907Z,19.19
2018-09-18T23:58:54.786Z,19.13
